Time,TemperatureF,DewpointF,PressureIn,WindDirection,WindDirectionDegrees,WindSpeedMPH,WindSpeedGustMPH,Humidity,HourlyPrecipIn,Conditions,Clouds,dailyrainin,SoftwareType,DateUTC
2013-09-25 00:02:00,71.7,70.2,29.83,NW,325,0.0,0.0,95,0.00,,,0.00,WeatherCatV1.02B3,2013-09-25 05:02:00,
2013-09-25 00:07:00,71.8,70.3,29.83,NW,325,0.0,0.0,95,0.00,,,0.00,WeatherCatV1.02B3,2013-09-25 05:07:00,
2013-09-25 00:12:00,71.8,70.3,29.83,NW,325,0.0,0.0,95,0.00,,,0.00,WeatherCatV1.02B3,2013-09-25 05:12:00,
2013-09-25 00:17:00,71.8,70.3,29.83,NW,325,0.0,0.0,95,0.00,,,0.00,WeatherCatV1.02B3,2013-09-25 05:17:00,
2013-09-25 00:22:00,71.7,70.2,29.83,NW,325,0.0,0.0,95,0.00,,,0.00,WeatherCatV1.02B3,2013-09-25 05:22:00,
2013-09-25 00:27:00,71.7,70.2,29.83,NW,325,0.0,0.0,95,0.00,,,0.00,WeatherCatV1.02B3,2013-09-25 05:27:00,
2013-09-25 00:32:00,71.7,70.5,29.83,NW,325,0.0,0.0,96,0.00,,,0.00,WeatherCatV1.02B3,2013-09-25 05:32:00,
2013-09-25 00:37:00,71.7,70.5,29.83,NW,325,0.0,0.0,96,0.00,,,0.00,WeatherCatV1.02B3,2013-09-25 05:37:00,
2013-09-25 00:42:00,71.7,70.5,29.83,NW,325,0.0,0.0,96,0.00,,,0.00,WeatherCatV1.02B3,2013-09-25 05:42:00,
2013-09-25 00:47:00,71.7,70.5,29.83,NW,325,0.0,0.0,96,0.00,,,0.00,WeatherCatV1.02B3,2013-09-25 05:47:00,
2013-09-25 00:52:00,71.7,70.5,29.83,NW,325,0.0,0.0,96,0.00,,,0.00,WeatherCatV1.02B3,2013-09-25 05:52:00,
2013-09-25 00:57:00,71.6,70.4,29.83,NW,325,0.0,0.0,96,0.00,,,0.00,WeatherCatV1.02B3,2013-09-25 05:57:00,
2013-09-25 01:02:00,71.6,70.4,29.83,NW,325,0.0,0.0,96,0.00,,,0.00,WeatherCatV1.02B3,2013-09-25 06:02:00,
2013-09-25 01:07:00,71.6,70.4,29.83,NW,325,0.0,0.0,96,0.00,,,0.00,WeatherCatV1.02B3,2013-09-25 06:07:00,
2013-09-25 01:12:00,71.5,70.3,29.83,NW,325,0.0,0.0,96,0.00,,,0.00,WeatherCatV1.02B3,2013-09-25 06:12:00,
2013-09-25 01:17:00,71.5,70.0,29.83,NW,325,0.0,0.0,95,0.00,,,0.00,WeatherCatV1.02B3,2013-09-25 06:17:00,
2013-09-25 01:22:00,71.4,69.9,29.83,NW,325,0.0,0.0,95,0.00,,,0.00,WeatherCatV1.02B3,2013-09-25 06:22:00,
2013-09-25 01:27:00,71.3,69.8,29.83,NW,325,0.0,0.0,95,0.00,,,0.00,WeatherCatV1.02B3,2013-09-25 06:27:00,
2013-09-25 01:32:00,71.2,69.7,29.83,NW,325,0.0,0.0,95,0.00,,,0.00,WeatherCatV1.02B3,2013-09-25 06:32:00,
2013-09-25 01:37:00,71.1,69.6,29.83,NW,325,0.0,0.0,95,0.00,,,0.00,WeatherCatV1.02B3,2013-09-25 06:37:00,
2013-09-25 01:42:00,71.0,69.5,29.83,NW,325,0.0,0.0,95,0.00,,,0.00,WeatherCatV1.02B3,2013-09-25 06:42:00,
2013-09-25 01:47:00,70.9,69.4,29.83,NW,325,0.0,0.0,95,0.00,,,0.00,WeatherCatV1.02B3,2013-09-25 06:47:00,
2013-09-25 01:52:00,70.8,69.3,29.83,NW,325,0.0,0.0,95,0.00,,,0.00,WeatherCatV1.02B3,2013-09-25 06:52:00,
2013-09-25 01:57:00,70.6,69.1,29.83,NW,325,0.0,0.0,95,0.00,,,0.00,WeatherCatV1.02B3,2013-09-25 06:57:00,
2013-09-25 02:02:00,70.5,69.0,29.83,NW,325,0.0,0.0,95,0.00,,,0.00,WeatherCatV1.02B3,2013-09-25 07:02:00,
2013-09-25 02:07:00,70.4,68.9,29.83,NW,325,0.0,0.0,95,0.00,,,0.00,WeatherCatV1.02B3,2013-09-25 07:07:00,
2013-09-25 02:12:00,70.1,68.6,29.83,NW,325,0.0,0.0,95,0.00,,,0.00,WeatherCatV1.02B3,2013-09-25 07:12:00,
2013-09-25 02:17:00,70.1,68.6,29.82,NW,325,0.0,0.0,95,0.00,,,0.00,WeatherCatV1.02B3,2013-09-25 07:17:00,
2013-09-25 02:22:00,69.9,68.4,29.82,NW,325,0.0,0.0,95,0.00,,,0.00,WeatherCatV1.02B3,2013-09-25 07:22:00,
2013-09-25 02:27:00,69.9,68.4,29.83,NW,325,0.0,0.0,95,0.00,,,0.00,WeatherCatV1.02B3,2013-09-25 07:27:00,
2013-09-25 02:32:00,69.7,68.2,29.82,NW,325,0.0,0.0,95,0.00,,,0.00,WeatherCatV1.02B3,2013-09-25 07:32:00,
2013-09-25 02:37:00,69.6,68.1,29.82,NW,325,0.0,0.0,95,0.00,,,0.00,WeatherCatV1.02B3,2013-09-25 07:37:00,
2013-09-25 02:42:00,69.5,68.0,29.82,NW,325,0.0,0.0,95,0.00,,,0.00,WeatherCatV1.02B3,2013-09-25 07:42:00,
2013-09-25 02:47:00,69.3,67.8,29.82,NW,325,0.0,0.0,95,0.00,,,0.00,WeatherCatV1.02B3,2013-09-25 07:47:00,
2013-09-25 02:52:00,69.3,67.8,29.82,NW,325,0.0,0.0,95,0.00,,,0.00,WeatherCatV1.02B3,2013-09-25 07:52:00,
2013-09-25 02:57:00,69.2,67.7,29.82,NW,325,0.0,0.0,95,0.00,,,0.00,WeatherCatV1.02B3,2013-09-25 07:57:00,
2013-09-25 03:02:00,69.1,67.6,29.82,NW,325,0.0,0.0,95,0.00,,,0.00,WeatherCatV1.02B3,2013-09-25 08:02:00,
2013-09-25 03:07:00,69.0,67.5,29.82,NW,325,0.0,0.0,95,0.00,,,0.00,WeatherCatV1.02B3,2013-09-25 08:07:00,
2013-09-25 03:12:00,68.9,67.4,29.82,NW,325,0.0,0.0,95,0.00,,,0.00,WeatherCatV1.02B3,2013-09-25 08:12:00,
2013-09-25 03:17:00,68.8,67.3,29.82,NW,325,0.0,0.0,95,0.00,,,0.00,WeatherCatV1.02B3,2013-09-25 08:17:00,
2013-09-25 03:22:00,68.7,67.2,29.82,NW,325,0.0,0.0,95,0.00,,,0.00,WeatherCatV1.02B3,2013-09-25 08:22:00,
2013-09-25 03:27:00,68.6,67.1,29.82,NW,325,0.0,0.0,95,0.00,,,0.00,WeatherCatV1.02B3,2013-09-25 08:27:00,
2013-09-25 03:32:00,68.5,67.0,29.82,NW,325,0.0,0.0,95,0.00,,,0.00,WeatherCatV1.02B3,2013-09-25 08:32:00,
2013-09-25 03:37:00,68.5,67.0,29.82,NW,325,0.0,0.0,95,0.00,,,0.00,WeatherCatV1.02B3,2013-09-25 08:37:00,
2013-09-25 03:42:00,68.4,66.9,29.82,NW,325,0.0,0.0,95,0.00,,,0.00,WeatherCatV1.02B3,2013-09-25 08:42:00,
2013-09-25 03:47:00,68.3,67.1,29.82,NW,325,0.0,0.0,96,0.00,,,0.00,WeatherCatV1.02B3,2013-09-25 08:47:00,
2013-09-25 03:52:00,68.3,67.1,29.82,NW,325,0.0,0.0,96,0.00,,,0.00,WeatherCatV1.02B3,2013-09-25 08:52:00,
2013-09-25 03:57:00,68.5,67.3,29.82,NW,325,0.0,0.0,96,0.00,,,0.00,WeatherCatV1.02B3,2013-09-25 08:57:00,
2013-09-25 04:02:00,68.9,67.7,29.82,NW,325,0.0,0.0,96,0.00,,,0.00,WeatherCatV1.02B3,2013-09-25 09:02:00,
2013-09-25 04:07:00,69.2,68.0,29.82,NW,325,0.0,0.0,96,0.00,,,0.00,WeatherCatV1.02B3,2013-09-25 09:07:00,
2013-09-25 04:12:00,69.7,68.5,29.81,NW,325,0.0,0.0,96,0.00,,,0.00,WeatherCatV1.02B3,2013-09-25 09:12:00,
2013-09-25 04:17:00,69.9,68.7,29.81,NW,325,0.0,0.0,96,0.00,,,0.00,WeatherCatV1.02B3,2013-09-25 09:17:00,
2013-09-25 04:22:00,70.0,68.8,29.81,NW,325,0.0,0.0,96,0.00,,,0.00,WeatherCatV1.02B3,2013-09-25 09:22:00,
2013-09-25 04:27:00,70.1,68.9,29.81,NW,325,0.0,0.0,96,0.00,,,0.00,WeatherCatV1.02B3,2013-09-25 09:27:00,
2013-09-25 04:32:00,70.1,68.9,29.82,NW,325,0.0,0.0,96,0.00,,,0.00,WeatherCatV1.02B3,2013-09-25 09:32:00,
2013-09-25 04:37:00,70.2,69.0,29.82,NW,325,0.0,0.0,96,0.00,,,0.00,WeatherCatV1.02B3,2013-09-25 09:37:00,
2013-09-25 04:42:00,70.3,69.1,29.82,NW,325,0.0,0.0,96,0.00,,,0.00,WeatherCatV1.02B3,2013-09-25 09:42:00,
2013-09-25 04:47:00,70.3,69.1,29.82,NW,325,0.0,0.0,96,0.00,,,0.00,WeatherCatV1.02B3,2013-09-25 09:47:00,
2013-09-25 04:52:00,70.3,69.1,29.82,NW,325,0.0,0.0,96,0.00,,,0.00,WeatherCatV1.02B3,2013-09-25 09:52:00,
2013-09-25 04:57:00,70.3,69.1,29.82,NW,325,0.0,0.0,96,0.00,,,0.00,WeatherCatV1.02B3,2013-09-25 09:57:00,
2013-09-25 05:02:00,70.3,69.1,29.82,NW,325,0.0,1.0,96,0.00,,,0.00,WeatherCatV1.02B3,2013-09-25 10:02:00,
2013-09-25 05:07:00,70.3,69.1,29.82,NW,325,0.0,0.0,96,0.00,,,0.00,WeatherCatV1.02B3,2013-09-25 10:07:00,
2013-09-25 05:12:00,70.3,69.1,29.82,NW,325,0.0,0.0,96,0.00,,,0.00,WeatherCatV1.02B3,2013-09-25 10:12:00,
2013-09-25 05:17:00,70.2,69.0,29.82,NW,325,0.0,0.0,96,0.00,,,0.00,WeatherCatV1.02B3,2013-09-25 10:17:00,
2013-09-25 05:22:00,70.0,68.8,29.82,NW,325,0.0,0.0,96,0.00,,,0.00,WeatherCatV1.02B3,2013-09-25 10:22:00,
2013-09-25 05:27:00,70.0,68.8,29.82,NW,325,0.0,0.0,96,0.00,,,0.00,WeatherCatV1.02B3,2013-09-25 10:27:00,
2013-09-25 05:32:00,70.0,68.8,29.82,NW,325,0.0,0.0,96,0.00,,,0.00,WeatherCatV1.02B3,2013-09-25 10:32:00,
2013-09-25 05:37:00,70.1,68.9,29.83,NW,325,0.0,0.0,96,0.00,,,0.00,WeatherCatV1.02B3,2013-09-25 10:37:00,
2013-09-25 05:42:00,70.1,68.9,29.83,NW,325,0.0,0.0,96,0.00,,,0.00,WeatherCatV1.02B3,2013-09-25 10:42:00,
2013-09-25 05:47:00,70.1,68.9,29.83,NW,325,0.0,0.0,96,0.00,,,0.00,WeatherCatV1.02B3,2013-09-25 10:47:00,
2013-09-25 05:52:00,70.1,68.9,29.83,NW,325,0.0,0.0,96,0.00,,,0.00,WeatherCatV1.02B3,2013-09-25 10:52:00,
2013-09-25 05:57:00,70.1,68.9,29.83,NW,325,0.0,0.0,96,0.00,,,0.00,WeatherCatV1.02B3,2013-09-25 10:57:00,
2013-09-25 06:02:00,70.0,68.8,29.83,NW,325,0.0,0.0,96,0.00,,,0.00,WeatherCatV1.02B3,2013-09-25 11:02:00,
2013-09-25 06:07:00,69.8,68.6,29.83,NW,325,0.0,0.0,96,0.00,,,0.00,WeatherCatV1.02B3,2013-09-25 11:07:00,
2013-09-25 06:12:00,69.8,68.6,29.83,NW,325,0.0,0.0,96,0.00,,,0.00,WeatherCatV1.02B3,2013-09-25 11:12:00,
2013-09-25 06:17:00,69.8,68.6,29.83,NW,325,0.0,0.0,96,0.00,,,0.00,WeatherCatV1.02B3,2013-09-25 11:17:00,
2013-09-25 06:22:00,69.7,68.5,29.83,NW,325,0.0,0.0,96,0.00,,,0.00,WeatherCatV1.02B3,2013-09-25 11:22:00,
2013-09-25 06:27:00,69.7,68.5,29.84,NW,325,0.0,0.0,96,0.00,,,0.00,WeatherCatV1.02B3,2013-09-25 11:27:00,
2013-09-25 06:32:00,69.6,68.4,29.84,NW,325,0.0,0.0,96,0.00,,,0.00,WeatherCatV1.02B3,2013-09-25 11:32:00,
2013-09-25 06:37:00,69.6,68.4,29.84,NW,325,0.0,0.0,96,0.00,,,0.00,WeatherCatV1.02B3,2013-09-25 11:37:00,
2013-09-25 06:42:00,69.5,68.3,29.84,NW,325,0.0,0.0,96,0.00,,,0.00,WeatherCatV1.02B3,2013-09-25 11:42:00,
2013-09-25 06:47:00,69.6,68.7,29.84,NW,325,0.0,0.0,97,0.00,,,0.00,WeatherCatV1.02B3,2013-09-25 11:47:00,
2013-09-25 06:52:00,69.7,68.8,29.84,NW,325,0.0,0.0,97,0.00,,,0.00,WeatherCatV1.02B3,2013-09-25 11:52:00,
2013-09-25 06:57:00,69.7,68.8,29.84,NW,325,0.0,0.0,97,0.00,,,0.00,WeatherCatV1.02B3,2013-09-25 11:57:00,
2013-09-25 07:02:00,69.8,68.9,29.84,NW,325,0.0,0.0,97,0.00,,,0.00,WeatherCatV1.02B3,2013-09-25 12:02:00,
2013-09-25 07:07:00,69.8,68.9,29.84,NW,325,0.0,0.0,97,0.00,,,0.00,WeatherCatV1.02B3,2013-09-25 12:07:00,
2013-09-25 07:12:00,69.8,68.9,29.85,NW,325,0.0,0.0,97,0.00,,,0.00,WeatherCatV1.02B3,2013-09-25 12:12:00,
2013-09-25 07:17:00,69.9,69.0,29.85,NW,325,0.0,0.0,97,0.00,,,0.00,WeatherCatV1.02B3,2013-09-25 12:17:00,
2013-09-25 07:22:00,69.9,69.0,29.85,NW,325,0.0,0.0,97,0.00,,,0.00,WeatherCatV1.02B3,2013-09-25 12:22:00,
2013-09-25 07:27:00,69.9,69.0,29.85,NW,325,0.0,0.0,97,0.00,,,0.00,WeatherCatV1.02B3,2013-09-25 12:27:00,
2013-09-25 07:32:00,70.0,69.1,29.85,NW,325,0.0,0.0,97,0.00,,,0.00,WeatherCatV1.02B3,2013-09-25 12:32:00,
2013-09-25 07:37:00,70.1,69.2,29.85,NW,325,0.0,0.0,97,0.00,,,0.00,WeatherCatV1.02B3,2013-09-25 12:37:00,
2013-09-25 07:42:00,70.2,69.3,29.85,NW,325,0.0,0.0,97,0.00,,,0.00,WeatherCatV1.02B3,2013-09-25 12:42:00,
2013-09-25 07:47:00,70.4,69.5,29.85,NW,325,0.0,0.0,97,0.00,,,0.00,WeatherCatV1.02B3,2013-09-25 12:47:00,
2013-09-25 07:52:00,70.5,69.6,29.85,NW,325,0.0,1.0,97,0.00,,,0.00,WeatherCatV1.02B3,2013-09-25 12:52:00,
2013-09-25 07:57:00,70.7,69.8,29.85,NW,325,0.0,0.0,97,0.00,,,0.00,WeatherCatV1.02B3,2013-09-25 12:57:00,
2013-09-25 08:02:00,70.8,69.9,29.85,NW,325,0.0,0.0,97,0.00,,,0.00,WeatherCatV1.02B3,2013-09-25 13:02:00,
2013-09-25 08:07:00,70.9,70.0,29.85,NW,325,0.0,0.0,97,0.00,,,0.00,WeatherCatV1.02B3,2013-09-25 13:07:00,
2013-09-25 08:12:00,71.0,70.1,29.85,NW,325,0.0,0.0,97,0.00,,,0.00,WeatherCatV1.02B3,2013-09-25 13:12:00,
2013-09-25 08:17:00,71.2,70.3,29.85,NW,325,0.0,0.0,97,0.00,,,0.00,WeatherCatV1.02B3,2013-09-25 13:17:00,
2013-09-25 08:22:00,71.3,70.4,29.85,NW,325,0.0,0.0,97,0.00,,,0.00,WeatherCatV1.02B3,2013-09-25 13:22:00,
2013-09-25 08:27:00,71.4,70.5,29.85,NW,325,0.0,0.0,97,0.00,,,0.00,WeatherCatV1.02B3,2013-09-25 13:27:00,
2013-09-25 08:32:00,71.4,70.5,29.85,NW,325,0.0,0.0,97,0.00,,,0.00,WeatherCatV1.02B3,2013-09-25 13:32:00,
2013-09-25 08:37:00,71.5,70.6,29.85,NW,325,0.0,1.0,97,0.00,,,0.00,WeatherCatV1.02B3,2013-09-25 13:37:00,
2013-09-25 08:42:00,71.5,70.6,29.85,NW,325,0.0,0.0,97,0.00,,,0.00,WeatherCatV1.02B3,2013-09-25 13:42:00,
2013-09-25 08:47:00,71.6,70.7,29.85,NNW,329,0.0,0.0,97,0.00,,,0.00,WeatherCatV1.02B3,2013-09-25 13:47:00,
2013-09-25 08:52:00,71.7,70.8,29.85,NNW,329,0.0,1.0,97,0.00,,,0.00,WeatherCatV1.02B3,2013-09-25 13:52:00,
2013-09-25 08:57:00,71.7,70.8,29.85,NW,308,0.0,0.0,97,0.00,,,0.00,WeatherCatV1.02B3,2013-09-25 13:57:00,
2013-09-25 09:02:00,71.9,71.0,29.85,NW,308,0.0,0.0,97,0.00,,,0.00,WeatherCatV1.02B3,2013-09-25 14:02:00,
2013-09-25 09:07:00,72.0,71.1,29.85,WNW,302,0.0,1.0,97,0.00,,,0.00,WeatherCatV1.02B3,2013-09-25 14:07:00,
2013-09-25 09:12:00,72.2,71.3,29.85,WNW,302,0.0,0.0,97,0.00,,,0.00,WeatherCatV1.02B3,2013-09-25 14:12:00,
2013-09-25 09:17:00,72.4,71.5,29.85,WNW,302,0.0,0.0,97,0.00,,,0.00,WeatherCatV1.02B3,2013-09-25 14:17:00,
2013-09-25 09:22:00,72.7,71.8,29.85,WNW,302,0.0,0.0,97,0.00,,,0.00,WeatherCatV1.02B3,2013-09-25 14:22:00,
2013-09-25 09:27:00,72.6,71.7,29.85,WNW,302,0.0,1.0,97,0.00,,,0.00,WeatherCatV1.02B3,2013-09-25 14:27:00,
2013-09-25 09:32:00,72.8,71.9,29.85,WNW,300,0.0,0.0,97,0.00,,,0.00,WeatherCatV1.02B3,2013-09-25 14:32:00,
2013-09-25 09:37:00,72.9,72.0,29.85,ESE,122,0.0,0.0,97,0.00,,,0.00,WeatherCatV1.02B3,2013-09-25 14:37:00,
2013-09-25 09:42:00,73.0,72.1,29.85,SE,139,0.0,2.0,97,0.00,,,0.00,WeatherCatV1.02B3,2013-09-25 14:42:00,
2013-09-25 09:47:00,73.0,72.1,29.85,SE,139,0.0,1.0,97,0.00,,,0.00,WeatherCatV1.02B3,2013-09-25 14:47:00,
2013-09-25 09:52:00,73.2,72.3,29.85,SE,139,0.0,1.0,97,0.00,,,0.00,WeatherCatV1.02B3,2013-09-25 14:52:00,
2013-09-25 09:57:00,73.5,72.6,29.85,SE,138,0.0,2.0,97,0.00,,,0.00,WeatherCatV1.02B3,2013-09-25 14:57:00,
2013-09-25 10:02:00,73.6,72.7,29.85,SE,138,0.0,1.0,97,0.00,,,0.00,WeatherCatV1.02B3,2013-09-25 15:02:00,
2013-09-25 10:07:00,73.8,72.9,29.85,SE,138,0.0,0.0,97,0.00,,,0.00,WeatherCatV1.02B3,2013-09-25 15:07:00,
2013-09-25 10:12:00,73.5,72.6,29.85,SE,138,0.0,0.0,97,0.00,,,0.00,WeatherCatV1.02B3,2013-09-25 15:12:00,
2013-09-25 10:17:00,73.3,72.1,29.85,SE,144,0.0,2.0,96,0.00,,,0.00,WeatherCatV1.02B3,2013-09-25 15:17:00,
2013-09-25 10:22:00,73.8,72.9,29.85,SE,144,0.0,0.0,97,0.00,,,0.00,WeatherCatV1.02B3,2013-09-25 15:22:00,
2013-09-25 10:27:00,73.7,72.5,29.85,SE,144,0.0,0.0,96,0.00,,,0.00,WeatherCatV1.02B3,2013-09-25 15:27:00,
2013-09-25 10:32:00,73.7,72.5,29.85,SSE,153,1.0,4.0,96,0.00,,,0.00,WeatherCatV1.02B3,2013-09-25 15:32:00,
2013-09-25 10:37:00,74.3,72.8,29.85,SW,231,0.0,2.0,95,0.00,,,0.00,WeatherCatV1.02B3,2013-09-25 15:37:00,
2013-09-25 10:42:00,74.7,72.9,29.85,SW,231,0.0,0.0,94,0.00,,,0.00,WeatherCatV1.02B3,2013-09-25 15:42:00,
2013-09-25 10:47:00,74.9,72.4,29.85,SW,231,0.0,3.0,92,0.00,,,0.00,WeatherCatV1.02B3,2013-09-25 15:47:00,
2013-09-25 10:52:00,75.7,73.2,29.85,SSE,158,0.0,2.0,92,0.00,,,0.00,WeatherCatV1.02B3,2013-09-25 15:52:00,
2013-09-25 10:57:00,76.3,72.8,29.85,South,191,0.0,2.0,89,0.00,,,0.00,WeatherCatV1.02B3,2013-09-25 15:57:00,
2013-09-25 11:02:00,76.7,72.2,29.85,SW,228,0.0,0.0,86,0.00,,,0.00,WeatherCatV1.02B3,2013-09-25 16:02:00,
2013-09-25 11:07:00,77.1,72.2,29.85,SW,217,0.0,0.0,85,0.00,,,0.00,WeatherCatV1.02B3,2013-09-25 16:07:00,
2013-09-25 11:12:00,77.5,72.3,29.85,SW,217,0.0,0.0,84,0.00,,,0.00,WeatherCatV1.02B3,2013-09-25 16:12:00,
2013-09-25 11:17:00,77.8,72.9,29.84,SW,217,0.0,1.0,85,0.00,,,0.00,WeatherCatV1.02B3,2013-09-25 16:17:00,
2013-09-25 11:22:00,78.1,71.8,29.84,SW,217,0.0,2.0,81,0.00,,,0.00,WeatherCatV1.02B3,2013-09-25 16:22:00,
2013-09-25 11:27:00,78.6,71.5,29.85,SW,217,1.0,1.0,79,0.00,,,0.00,WeatherCatV1.02B3,2013-09-25 16:27:00,
2013-09-25 11:32:00,79.1,70.9,29.84,WSW,244,0.0,1.0,76,0.00,,,0.00,WeatherCatV1.02B3,2013-09-25 16:32:00,
2013-09-25 11:37:00,79.5,71.3,29.84,WSW,244,0.0,1.0,76,0.00,,,0.00,WeatherCatV1.02B3,2013-09-25 16:37:00,
2013-09-25 11:42:00,80.0,70.5,29.84,WSW,244,0.0,1.0,73,0.00,,,0.00,WeatherCatV1.02B3,2013-09-25 16:42:00,
2013-09-25 11:47:00,80.2,70.3,29.84,WSW,253,0.0,0.0,72,0.00,,,0.00,WeatherCatV1.02B3,2013-09-25 16:47:00,
2013-09-25 11:52:00,80.4,70.5,29.84,WSW,253,0.0,1.0,72,0.00,,,0.00,WeatherCatV1.02B3,2013-09-25 16:52:00,
2013-09-25 11:57:00,80.7,70.0,29.84,West,270,0.0,0.0,70,0.00,,,0.00,WeatherCatV1.02B3,2013-09-25 16:57:00,
2013-09-25 12:02:00,80.8,70.1,29.84,West,269,0.0,0.0,70,0.00,,,0.00,WeatherCatV1.02B3,2013-09-25 17:02:00,
2013-09-25 12:07:00,80.9,69.8,29.84,West,269,0.0,0.0,69,0.00,,,0.00,WeatherCatV1.02B3,2013-09-25 17:07:00,
2013-09-25 12:12:00,81.3,67.5,29.84,West,281,1.0,1.0,63,0.00,,,0.00,WeatherCatV1.02B3,2013-09-25 17:12:00,
2013-09-25 12:17:00,81.8,68.4,29.83,WNW,290,0.0,3.0,64,0.00,,,0.00,WeatherCatV1.02B3,2013-09-25 17:17:00,
2013-09-25 12:22:00,82.3,69.3,29.83,West,266,4.0,4.0,65,0.00,,,0.00,WeatherCatV1.02B3,2013-09-25 17:22:00,
2013-09-25 12:27:00,82.7,70.6,29.83,NW,325,1.0,4.0,67,0.00,,,0.00,WeatherCatV1.02B3,2013-09-25 17:27:00,
2013-09-25 12:32:00,83.1,67.3,29.83,WSW,241,0.0,0.0,59,0.00,,,0.00,WeatherCatV1.02B3,2013-09-25 17:32:00,
2013-09-25 12:37:00,83.4,65.0,29.83,West,275,0.0,3.0,54,0.00,,,0.00,WeatherCatV1.02B3,2013-09-25 17:37:00,
2013-09-25 12:42:00,83.4,65.0,29.83,WNW,294,0.0,1.0,54,0.00,,,0.00,WeatherCatV1.02B3,2013-09-25 17:42:00,
2013-09-25 12:47:00,83.2,65.3,29.83,WSW,248,0.0,4.0,55,0.00,,,0.00,WeatherCatV1.02B3,2013-09-25 17:47:00,
2013-09-25 12:52:00,83.3,67.4,29.82,WSW,254,0.0,3.0,59,0.00,,,0.00,WeatherCatV1.02B3,2013-09-25 17:52:00,
2013-09-25 12:57:00,83.4,63.3,29.82,WSW,258,0.0,2.0,51,0.00,,,0.00,WeatherCatV1.02B3,2013-09-25 17:57:00,
2013-09-25 13:02:00,83.5,65.6,29.82,WSW,257,3.0,4.0,55,0.00,,,0.00,WeatherCatV1.02B3,2013-09-25 18:02:00,
2013-09-25 13:07:00,83.4,66.0,29.82,WNW,291,0.0,2.0,56,0.00,,,0.00,WeatherCatV1.02B3,2013-09-25 18:07:00,
2013-09-25 13:12:00,83.2,64.3,29.82,West,281,0.0,2.0,53,0.00,,,0.00,WeatherCatV1.02B3,2013-09-25 18:12:00,
2013-09-25 13:17:00,83.4,65.0,29.82,West,276,2.0,5.0,54,0.00,,,0.00,WeatherCatV1.02B3,2013-09-25 18:17:00,
2013-09-25 13:22:00,83.4,64.4,29.82,West,264,0.0,5.0,53,0.00,,,0.00,WeatherCatV1.02B3,2013-09-25 18:22:00,
2013-09-25 13:27:00,83.3,65.4,29.82,WNW,286,0.0,6.0,55,0.00,,,0.00,WeatherCatV1.02B3,2013-09-25 18:27:00,
2013-09-25 13:32:00,83.4,63.9,29.82,West,281,0.0,1.0,52,0.00,,,0.00,WeatherCatV1.02B3,2013-09-25 18:32:00,
2013-09-25 13:37:00,83.7,64.7,29.82,NW,305,0.0,2.0,53,0.00,,,0.00,WeatherCatV1.02B3,2013-09-25 18:37:00,
2013-09-25 13:42:00,83.6,64.1,29.82,West,273,0.0,4.0,52,0.00,,,0.00,WeatherCatV1.02B3,2013-09-25 18:42:00,
2013-09-25 13:47:00,83.4,63.9,29.81,West,267,0.0,1.0,52,0.00,,,0.00,WeatherCatV1.02B3,2013-09-25 18:47:00,
2013-09-25 13:52:00,83.6,65.7,29.81,NW,316,3.0,5.0,55,0.00,,,0.00,WeatherCatV1.02B3,2013-09-25 18:52:00,
2013-09-25 13:57:00,83.3,63.8,29.81,West,263,1.0,3.0,52,0.00,,,0.00,WeatherCatV1.02B3,2013-09-25 18:57:00,
2013-09-25 14:02:00,83.2,63.2,29.81,West,279,1.0,3.0,51,0.00,,,0.00,WeatherCatV1.02B3,2013-09-25 19:02:00,
2013-09-25 14:07:00,83.3,64.4,29.81,West,270,0.0,0.0,53,0.00,,,0.00,WeatherCatV1.02B3,2013-09-25 19:07:00,
2013-09-25 14:12:00,83.9,64.9,29.81,West,261,1.0,4.0,53,0.00,,,0.00,WeatherCatV1.02B3,2013-09-25 19:12:00,
2013-09-25 14:17:00,83.6,64.6,29.81,WSW,247,2.0,6.0,53,0.00,,,0.00,WeatherCatV1.02B3,2013-09-25 19:17:00,
2013-09-25 14:22:00,83.3,64.4,29.81,North,0,2.0,5.0,53,0.00,,,0.00,WeatherCatV1.02B3,2013-09-25 19:22:00,
2013-09-25 14:27:00,83.0,63.5,29.81,West,265,0.0,6.0,52,0.00,,,0.00,WeatherCatV1.02B3,2013-09-25 19:27:00,
2013-09-25 14:32:00,82.9,63.4,29.81,WSW,243,2.0,5.0,52,0.00,,,0.00,WeatherCatV1.02B3,2013-09-25 19:32:00,
2013-09-25 14:37:00,83.2,63.7,29.81,NW,313,1.0,4.0,52,0.00,,,0.00,WeatherCatV1.02B3,2013-09-25 19:37:00,
2013-09-25 14:42:00,83.4,65.0,29.81,West,264,3.0,3.0,54,0.00,,,0.00,WeatherCatV1.02B3,2013-09-25 19:42:00,
2013-09-25 14:47:00,83.9,63.8,29.81,NW,309,1.0,3.0,51,0.00,,,0.00,WeatherCatV1.02B3,2013-09-25 19:47:00,
2013-09-25 14:52:00,83.6,63.0,29.81,West,280,0.0,3.0,50,0.00,,,0.00,WeatherCatV1.02B3,2013-09-25 19:52:00,
2013-09-25 14:57:00,83.6,61.8,29.81,West,281,0.0,4.0,48,0.00,,,0.00,WeatherCatV1.02B3,2013-09-25 19:57:00,
2013-09-25 15:02:00,83.6,63.0,29.81,West,277,0.0,3.0,50,0.00,,,0.00,WeatherCatV1.02B3,2013-09-25 20:02:00,
2013-09-25 15:07:00,83.3,63.8,29.81,WSW,257,3.0,3.0,52,0.00,,,0.00,WeatherCatV1.02B3,2013-09-25 20:07:00,
2013-09-25 15:12:00,83.2,64.3,29.81,West,260,0.0,0.0,53,0.00,,,0.00,WeatherCatV1.02B3,2013-09-25 20:12:00,
2013-09-25 15:17:00,82.8,63.9,29.81,WSW,251,0.0,1.0,53,0.00,,,0.00,WeatherCatV1.02B3,2013-09-25 20:17:00,
2013-09-25 15:22:00,82.9,64.5,29.81,WNW,290,0.0,3.0,54,0.00,,,0.00,WeatherCatV1.02B3,2013-09-25 20:22:00,
2013-09-25 15:27:00,83.0,64.1,29.81,WNW,284,1.0,1.0,53,0.00,,,0.00,WeatherCatV1.02B3,2013-09-25 20:27:00,
2013-09-25 15:32:00,83.0,64.6,29.81,WSW,257,0.0,1.0,54,0.00,,,0.00,WeatherCatV1.02B3,2013-09-25 20:32:00,
2013-09-25 15:37:00,83.0,64.6,29.81,West,272,1.0,6.0,54,0.00,,,0.00,WeatherCatV1.02B3,2013-09-25 20:37:00,
2013-09-25 15:42:00,82.8,63.9,29.81,West,264,2.0,5.0,53,0.00,,,0.00,WeatherCatV1.02B3,2013-09-25 20:42:00,
2013-09-25 15:47:00,82.7,64.3,29.81,WNW,284,0.0,1.0,54,0.00,,,0.00,WeatherCatV1.02B3,2013-09-25 20:47:00,
2013-09-25 15:52:00,82.8,63.3,29.81,West,280,0.0,2.0,52,0.00,,,0.00,WeatherCatV1.02B3,2013-09-25 20:52:00,
2013-09-25 15:57:00,82.7,63.8,29.81,WSW,257,2.0,2.0,53,0.00,,,0.00,WeatherCatV1.02B3,2013-09-25 20:57:00,
2013-09-25 16:02:00,82.6,64.2,29.81,NNW,329,1.0,2.0,54,0.00,,,0.00,WeatherCatV1.02B3,2013-09-25 21:02:00,
2013-09-25 16:07:00,82.7,64.9,29.80,West,278,0.0,1.0,55,0.00,,,0.00,WeatherCatV1.02B3,2013-09-25 21:07:00,
2013-09-25 16:12:00,82.8,65.0,29.81,WNW,294,1.0,4.0,55,0.00,,,0.00,WeatherCatV1.02B3,2013-09-25 21:12:00,
2013-09-25 16:17:00,82.9,64.5,29.81,West,261,4.0,4.0,54,0.00,,,0.00,WeatherCatV1.02B3,2013-09-25 21:17:00,
2013-09-25 16:22:00,82.9,65.6,29.81,NNW,340,0.0,2.0,56,0.00,,,0.00,WeatherCatV1.02B3,2013-09-25 21:22:00,
2013-09-25 16:27:00,82.9,64.0,29.81,WSW,240,0.0,3.0,53,0.00,,,0.00,WeatherCatV1.02B3,2013-09-25 21:27:00,
2013-09-25 16:32:00,82.8,63.3,29.81,West,281,0.0,4.0,52,0.00,,,0.00,WeatherCatV1.02B3,2013-09-25 21:32:00,
2013-09-25 16:37:00,82.6,64.2,29.80,West,267,0.0,2.0,54,0.00,,,0.00,WeatherCatV1.02B3,2013-09-25 21:37:00,
2013-09-25 16:42:00,82.8,63.9,29.81,WSW,253,2.0,7.0,53,0.00,,,0.00,WeatherCatV1.02B3,2013-09-25 21:42:00,
2013-09-25 16:47:00,82.7,63.8,29.80,WNW,289,0.0,1.0,53,0.00,,,0.00,WeatherCatV1.02B3,2013-09-25 21:47:00,
2013-09-25 16:52:00,83.0,64.1,29.80,West,264,0.0,1.0,53,0.00,,,0.00,WeatherCatV1.02B3,2013-09-25 21:52:00,
2013-09-25 16:57:00,83.1,64.2,29.81,WNW,286,0.0,3.0,53,0.00,,,0.00,WeatherCatV1.02B3,2013-09-25 21:57:00,
2013-09-25 17:02:00,82.8,65.0,29.80,West,267,0.0,0.0,55,0.00,,,0.00,WeatherCatV1.02B3,2013-09-25 22:02:00,
2013-09-25 17:07:00,82.5,64.7,29.81,West,265,0.0,2.0,55,0.00,,,0.00,WeatherCatV1.02B3,2013-09-25 22:07:00,
2013-09-25 17:12:00,82.1,64.3,29.80,NW,311,4.0,4.0,55,0.00,,,0.00,WeatherCatV1.02B3,2013-09-25 22:12:00,
2013-09-25 17:17:00,81.8,64.0,29.81,WNW,287,0.0,3.0,55,0.00,,,0.00,WeatherCatV1.02B3,2013-09-25 22:17:00,
2013-09-25 17:22:00,81.6,64.4,29.81,NNE,22,0.0,0.0,56,0.00,,,0.00,WeatherCatV1.02B3,2013-09-25 22:22:00,
2013-09-25 17:27:00,81.6,64.4,29.81,West,277,0.0,1.0,56,0.00,,,0.00,WeatherCatV1.02B3,2013-09-25 22:27:00,
2013-09-25 17:32:00,81.5,64.3,29.81,West,265,1.0,1.0,56,0.00,,,0.00,WeatherCatV1.02B3,2013-09-25 22:32:00,
2013-09-25 17:37:00,81.3,64.1,29.81,West,280,0.0,2.0,56,0.00,,,0.00,WeatherCatV1.02B3,2013-09-25 22:37:00,
2013-09-25 17:42:00,81.4,64.7,29.81,West,277,0.0,0.0,57,0.00,,,0.00,WeatherCatV1.02B3,2013-09-25 22:42:00,
2013-09-25 17:47:00,81.3,64.6,29.81,WSW,254,0.0,5.0,57,0.00,,,0.00,WeatherCatV1.02B3,2013-09-25 22:47:00,
2013-09-25 17:52:00,81.1,65.4,29.81,WSW,254,4.0,4.0,59,0.00,,,0.00,WeatherCatV1.02B3,2013-09-25 22:52:00,
2013-09-25 17:57:00,80.9,64.2,29.81,West,281,3.0,3.0,57,0.00,,,0.00,WeatherCatV1.02B3,2013-09-25 22:57:00,
2013-09-25 18:02:00,80.7,64.0,29.81,WSW,239,0.0,5.0,57,0.00,,,0.00,WeatherCatV1.02B3,2013-09-25 23:02:00,
2013-09-25 18:07:00,80.5,64.3,29.81,SW,235,0.0,2.0,58,0.00,,,0.00,WeatherCatV1.02B3,2013-09-25 23:07:00,
2013-09-25 18:12:00,80.3,64.2,29.82,West,277,0.0,1.0,58,0.00,,,0.00,WeatherCatV1.02B3,2013-09-25 23:12:00,
2013-09-25 18:17:00,80.2,64.5,29.82,WSW,255,0.0,1.0,59,0.00,,,0.00,WeatherCatV1.02B3,2013-09-25 23:17:00,
2013-09-25 18:22:00,80.1,64.5,29.82,WSW,255,0.0,0.0,59,0.00,,,0.00,WeatherCatV1.02B3,2013-09-25 23:22:00,
2013-09-25 18:27:00,79.9,63.8,29.82,West,262,0.0,2.0,58,0.00,,,0.00,WeatherCatV1.02B3,2013-09-25 23:27:00,
2013-09-25 18:32:00,79.8,64.2,29.82,West,262,0.0,0.0,59,0.00,,,0.00,WeatherCatV1.02B3,2013-09-25 23:32:00,
2013-09-25 18:37:00,79.6,64.0,29.82,West,262,0.0,0.0,59,0.00,,,0.00,WeatherCatV1.02B3,2013-09-25 23:37:00,
2013-09-25 18:42:00,79.4,64.8,29.82,West,262,0.0,0.0,61,0.00,,,0.00,WeatherCatV1.02B3,2013-09-25 23:42:00,
2013-09-25 18:47:00,79.1,64.9,29.82,West,262,0.0,0.0,62,0.00,,,0.00,WeatherCatV1.02B3,2013-09-25 23:47:00,
2013-09-25 18:53:00,78.8,64.7,29.82,West,262,0.0,0.0,62,0.00,,,0.00,WeatherCatV1.02B3,2013-09-25 23:53:00,
2013-09-25 18:58:00,78.6,64.5,29.82,West,262,0.0,0.0,62,0.00,,,0.00,WeatherCatV1.02B3,2013-09-25 23:58:00,
2013-09-25 19:03:00,78.3,64.6,29.82,West,262,0.0,0.0,63,0.00,,,0.00,WeatherCatV1.02B3,2013-09-26 00:03:00,
2013-09-25 19:08:00,78.0,64.4,29.82,West,262,0.0,0.0,63,0.00,,,0.00,WeatherCatV1.02B3,2013-09-26 00:08:00,
2013-09-25 19:13:00,77.8,64.6,29.82,West,262,0.0,0.0,64,0.00,,,0.00,WeatherCatV1.02B3,2013-09-26 00:13:00,
2013-09-25 19:18:00,77.5,65.2,29.82,West,262,0.0,0.0,66,0.00,,,0.00,WeatherCatV1.02B3,2013-09-26 00:18:00,
2013-09-25 19:23:00,77.1,65.3,29.83,West,262,0.0,0.0,67,0.00,,,0.00,WeatherCatV1.02B3,2013-09-26 00:23:00,
2013-09-25 19:28:00,76.7,65.3,29.83,West,262,0.0,0.0,68,0.00,,,0.00,WeatherCatV1.02B3,2013-09-26 00:28:00,
2013-09-25 19:33:00,76.2,65.3,29.83,West,262,0.0,0.0,69,0.00,,,0.00,WeatherCatV1.02B3,2013-09-26 00:33:00,
2013-09-25 19:38:00,75.8,65.3,29.83,West,262,0.0,0.0,70,0.00,,,0.00,WeatherCatV1.02B3,2013-09-26 00:38:00,
2013-09-25 19:43:00,75.5,65.4,29.83,West,262,0.0,0.0,71,0.00,,,0.00,WeatherCatV1.02B3,2013-09-26 00:43:00,
2013-09-25 19:48:00,75.1,65.0,29.83,West,262,0.0,0.0,71,0.00,,,0.00,WeatherCatV1.02B3,2013-09-26 00:48:00,
2013-09-25 19:53:00,74.7,64.7,29.83,West,262,0.0,0.0,71,0.00,,,0.00,WeatherCatV1.02B3,2013-09-26 00:53:00,
2013-09-25 19:58:00,74.3,64.7,29.83,West,262,0.0,0.0,72,0.00,,,0.00,WeatherCatV1.02B3,2013-09-26 00:58:00,
2013-09-25 20:03:00,73.9,64.7,29.84,West,262,0.0,0.0,73,0.00,,,0.00,WeatherCatV1.02B3,2013-09-26 01:03:00,
2013-09-25 20:08:00,73.6,64.8,29.84,West,262,0.0,0.0,74,0.00,,,0.00,WeatherCatV1.02B3,2013-09-26 01:08:00,
2013-09-25 20:13:00,73.4,65.0,29.84,West,262,0.0,0.0,75,0.00,,,0.00,WeatherCatV1.02B3,2013-09-26 01:13:00,
2013-09-25 20:18:00,73.1,64.7,29.84,West,262,0.0,0.0,75,0.00,,,0.00,WeatherCatV1.02B3,2013-09-26 01:18:00,
2013-09-25 20:23:00,72.8,64.8,29.84,West,262,0.0,0.0,76,0.00,,,0.00,WeatherCatV1.02B3,2013-09-26 01:23:00,
2013-09-25 20:28:00,72.6,65.0,29.84,West,262,0.0,0.0,77,0.00,,,0.00,WeatherCatV1.02B3,2013-09-26 01:28:00,
2013-09-25 20:33:00,72.3,64.7,29.84,West,262,0.0,0.0,77,0.00,,,0.00,WeatherCatV1.02B3,2013-09-26 01:33:00,
2013-09-25 20:38:00,72.2,65.3,29.84,West,262,0.0,0.0,79,0.00,,,0.00,WeatherCatV1.02B3,2013-09-26 01:38:00,
2013-09-25 20:43:00,72.0,65.1,29.85,West,262,0.0,0.0,79,0.00,,,0.00,WeatherCatV1.02B3,2013-09-26 01:43:00,
2013-09-25 20:48:00,71.7,65.2,29.85,West,262,0.0,0.0,80,0.00,,,0.00,WeatherCatV1.02B3,2013-09-26 01:48:00,
2013-09-25 20:53:00,71.5,65.0,29.85,West,262,0.0,0.0,80,0.00,,,0.00,WeatherCatV1.02B3,2013-09-26 01:53:00,
2013-09-25 20:58:00,71.3,64.8,29.85,West,262,0.0,0.0,80,0.00,,,0.00,WeatherCatV1.02B3,2013-09-26 01:58:00,
2013-09-25 21:03:00,71.1,65.0,29.85,West,262,0.0,0.0,81,0.00,,,0.00,WeatherCatV1.02B3,2013-09-26 02:03:00,
2013-09-25 21:08:00,71.0,64.9,29.85,West,262,0.0,0.0,81,0.00,,,0.00,WeatherCatV1.02B3,2013-09-26 02:08:00,
2013-09-25 21:13:00,70.8,64.7,29.86,West,262,0.0,0.0,81,0.00,,,0.00,WeatherCatV1.02B3,2013-09-26 02:13:00,
2013-09-25 21:18:00,70.7,64.9,29.86,West,262,0.0,0.0,82,0.00,,,0.00,WeatherCatV1.02B3,2013-09-26 02:18:00,
2013-09-25 21:23:00,70.6,65.2,29.86,West,262,0.0,0.0,83,0.00,,,0.00,WeatherCatV1.02B3,2013-09-26 02:23:00,
2013-09-25 21:28:00,70.4,65.0,29.86,West,262,0.0,0.0,83,0.00,,,0.00,WeatherCatV1.02B3,2013-09-26 02:28:00,
2013-09-25 21:33:00,70.3,65.2,29.86,West,262,0.0,0.0,84,0.00,,,0.00,WeatherCatV1.02B3,2013-09-26 02:33:00,
2013-09-25 21:38:00,70.2,65.5,29.86,West,262,0.0,0.0,85,0.00,,,0.00,WeatherCatV1.02B3,2013-09-26 02:38:00,
2013-09-25 21:43:00,70.0,65.3,29.86,West,262,0.0,0.0,85,0.00,,,0.00,WeatherCatV1.02B3,2013-09-26 02:43:00,
2013-09-25 21:48:00,69.8,65.1,29.86,West,262,0.0,0.0,85,0.00,,,0.00,WeatherCatV1.02B3,2013-09-26 02:48:00,
2013-09-25 21:53:00,69.7,65.3,29.86,West,262,0.0,0.0,86,0.00,,,0.00,WeatherCatV1.02B3,2013-09-26 02:53:00,
2013-09-25 21:58:00,69.5,65.1,29.86,West,262,0.0,0.0,86,0.00,,,0.00,WeatherCatV1.02B3,2013-09-26 02:58:00,
2013-09-25 22:03:00,69.4,65.0,29.86,West,262,0.0,0.0,86,0.00,,,0.00,WeatherCatV1.02B3,2013-09-26 03:03:00,
2013-09-25 22:08:00,69.3,64.9,29.87,West,262,0.0,0.0,86,0.00,,,0.00,WeatherCatV1.02B3,2013-09-26 03:08:00,
2013-09-25 22:13:00,69.2,65.2,29.87,West,262,0.0,0.0,87,0.00,,,0.00,WeatherCatV1.02B3,2013-09-26 03:13:00,
2013-09-25 22:18:00,69.0,65.0,29.87,West,262,0.0,0.0,87,0.00,,,0.00,WeatherCatV1.02B3,2013-09-26 03:18:00,
2013-09-25 22:23:00,68.9,64.9,29.87,West,262,0.0,0.0,87,0.00,,,0.00,WeatherCatV1.02B3,2013-09-26 03:23:00,
2013-09-25 22:28:00,68.8,65.1,29.87,West,262,0.0,0.0,88,0.00,,,0.00,WeatherCatV1.02B3,2013-09-26 03:28:00,
2013-09-25 22:33:00,68.7,65.0,29.87,West,262,0.0,0.0,88,0.00,,,0.00,WeatherCatV1.02B3,2013-09-26 03:33:00,
2013-09-25 22:38:00,68.6,64.9,29.87,West,262,0.0,0.0,88,0.00,,,0.00,WeatherCatV1.02B3,2013-09-26 03:38:00,
2013-09-25 22:43:00,68.5,64.8,29.87,West,262,0.0,0.0,88,0.00,,,0.00,WeatherCatV1.02B3,2013-09-26 03:43:00,
2013-09-25 22:48:00,68.5,65.1,29.87,West,262,0.0,0.0,89,0.00,,,0.00,WeatherCatV1.02B3,2013-09-26 03:48:00,
2013-09-25 22:53:00,68.4,65.0,29.87,West,262,0.0,0.0,89,0.00,,,0.00,WeatherCatV1.02B3,2013-09-26 03:53:00,
2013-09-25 22:58:00,68.4,65.0,29.87,West,262,0.0,0.0,89,0.00,,,0.00,WeatherCatV1.02B3,2013-09-26 03:58:00,
2013-09-25 23:01:00,68.3,64.9,29.87,West,262,0.0,0.0,89,0.00,,,0.00,WeatherCatV1.02B3,2013-09-26 04:01:00,
2013-09-25 23:06:00,68.2,64.8,29.87,West,262,0.0,0.0,89,0.00,,,0.00,WeatherCatV1.02B3,2013-09-26 04:06:00,
2013-09-25 23:11:00,68.0,64.6,29.87,West,262,0.0,0.0,89,0.00,,,0.00,WeatherCatV1.02B3,2013-09-26 04:11:00,
2013-09-25 23:16:00,68.0,64.6,29.87,West,262,0.0,0.0,89,0.00,,,0.00,WeatherCatV1.02B3,2013-09-26 04:16:00,
2013-09-25 23:21:00,67.9,64.5,29.86,West,262,0.0,0.0,89,0.00,,,0.00,WeatherCatV1.02B3,2013-09-26 04:21:00,
2013-09-25 23:26:00,67.8,64.8,29.86,West,262,0.0,0.0,90,0.00,,,0.00,WeatherCatV1.02B3,2013-09-26 04:26:00,
2013-09-25 23:31:00,67.7,64.7,29.86,West,262,0.0,0.0,90,0.00,,,0.00,WeatherCatV1.02B3,2013-09-26 04:31:00,
2013-09-25 23:36:00,67.6,64.6,29.86,West,262,0.0,0.0,90,0.00,,,0.00,WeatherCatV1.02B3,2013-09-26 04:36:00,
2013-09-25 23:41:00,67.5,64.5,29.86,West,262,0.0,0.0,90,0.00,,,0.00,WeatherCatV1.02B3,2013-09-26 04:41:00,
2013-09-25 23:46:00,67.4,64.4,29.86,West,262,0.0,0.0,90,0.00,,,0.00,WeatherCatV1.02B3,2013-09-26 04:46:00,
2013-09-25 23:51:00,67.3,64.3,29.86,West,262,0.0,0.0,90,0.00,,,0.00,WeatherCatV1.02B3,2013-09-26 04:51:00,
2013-09-25 23:56:00,67.2,64.2,29.86,West,262,0.0,0.0,90,0.00,,,0.00,WeatherCatV1.02B3,2013-09-26 04:56:00,